Time;durP1;ratioP1;P1;durP2;ratioP2;P2;SDS_P1;SDS_P2;PMS_P1;PMS_P2;Temp;Humidity;BMP_temperature;BMP_pressure;BME280_temperature;BME280_humidity;BME280_pressure;Samples;Min_cycle;Max_cycle;Signal;HPM_P1;HPM_P2
2022/05/02 00:01:01;;;;;;;1.85;1.20;;;;;;;1.09;49.50;99680.06;5062082;28;20040;-80
2022/05/02 00:03:27;;;;;;;2.65;1.27;;;;;;;1.08;49.52;99673.09;5078716;28;20036;-80
2022/05/02 00:05:55;;;;;;;1.83;1.27;;;;;;;1.16;49.32;99671.03;5078486;28;20135;-80
2022/05/02 00:08:21;;;;;;;3.45;1.75;;;;;;;1.03;49.04;99665.34;5079295;28;20050;-78
2022/05/02 00:10:47;;;;;;;14.55;1.88;;;;;;;1.02;49.46;99663.66;5062069;28;20043;-80
2022/05/02 00:13:13;;;;;;;2.40;1.73;;;;;;;1.01;49.35;99675.06;5061752;28;20048;-80
2022/05/02 00:15:39;;;;;;;1.50;1.38;;;;;;;1.01;49.33;99667.16;5078819;28;20043;-79
2022/05/02 00:18:05;;;;;;;1.50;1.40;;;;;;;0.97;49.25;99666.41;5061651;28;20351;-79
2022/05/02 00:20:36;;;;;;;1.42;1.30;;;;;;;0.98;49.17;99680.47;5078851;28;20495;-81
2022/05/02 00:23:05;;;;;;;3.45;1.50;;;;;;;0.94;49.33;99684.09;5078465;28;20040;-79
2022/05/02 00:25:32;;;;;;;1.98;1.55;;;;;;;0.95;48.86;99691.09;5061834;28;20052;-79
2022/05/02 00:27:58;;;;;;;3.42;1.40;;;;;;;0.86;48.73;99686.13;5061882;28;20120;-80
2022/05/02 00:30:25;;;;;;;1.60;1.50;;;;;;;0.93;48.55;99688.50;5061466;28;20518;-78
2022/05/02 00:32:52;;;;;;;1.98;1.20;;;;;;;0.88;48.50;99700.13;5061416;28;20487;-81
2022/05/02 00:35:18;;;;;;;1.25;1.10;;;;;;;0.88;49.04;99697.50;5061463;28;20044;-79
2022/05/02 00:37:44;;;;;;;1.80;1.70;;;;;;;0.83;48.61;99688.88;5044944;28;20047;-80
2022/05/02 00:40:13;;;;;;;1.85;1.50;;;;;;;0.93;48.28;99700.81;5078421;28;20130;-80
2022/05/02 00:42:41;;;;;;;1.40;1.30;;;;;;;0.88;48.29;99700.13;5077120;28;20403;-79
2022/05/02 00:45:08;;;;;;;3.50;1.50;;;;;;;0.86;48.34;99688.78;5061568;28;20148;-80
2022/05/02 00:47:35;;;;;;;1.60;1.50;;;;;;;0.95;48.36;99699.00;5062270;28;20048;-81
2022/05/02 00:50:03;;;;;;;1.45;1.35;;;;;;;0.94;48.24;99697.25;5081233;28;20036;-79
2022/05/02 00:52:29;;;;;;;1.35;1.25;;;;;;;0.95;48.16;99697.22;5098163;28;20075;-79
2022/05/02 00:54:55;;;;;;;1.40;1.30;;;;;;;1.05;47.80;99702.16;5079500;28;20082;-80
2022/05/02 00:57:22;;;;;;;1.63;1.38;;;;;;;1.08;47.82;99700.25;5061821;28;20506;-80
2022/05/02 00:59:48;;;;;;;1.58;1.48;;;;;;;1.06;47.61;99707.38;5045059;28;20043;-79
2022/05/02 01:02:15;;;;;;;5.97;1.38;;;;;;;1.08;47.79;99708.16;5060879;28;20123;-79
2022/05/02 01:04:42;;;;;;;3.25;1.40;;;;;;;1.05;47.47;99694.25;5044473;28;20055;-78
2022/05/02 01:07:09;;;;;;;3.17;1.38;;;;;;;1.12;47.60;99712.41;5044406;28;20044;-79
2022/05/02 01:09:38;;;;;;;1.85;1.58;;;;;;;1.12;47.37;99712.41;5044404;28;20583;-79
2022/05/02 01:12:16;;;;;;;2.65;1.50;;;;;;;1.16;47.04;99708.75;5077945;28;20514;-80
2022/05/02 01:14:44;;;;;;;1.52;1.42;;;;;;;1.27;46.72;99710.13;5078036;28;20062;-78
2022/05/02 01:17:10;;;;;;;1.48;1.33;;;;;;;1.24;46.74;99710.25;5060565;28;20040;-79
2022/05/02 01:19:37;;;;;;;1.88;1.38;;;;;;;1.28;46.60;99709.22;5043738;28;20055;-79
2022/05/02 01:22:04;;;;;;;3.05;1.40;;;;;;;1.21;46.48;99712.09;5095197;28;20052;-80
2022/05/02 01:24:36;;;;;;;2.50;1.65;;;;;;;1.21;46.52;99701.56;5043660;28;20047;-79
2022/05/02 01:27:03;;;;;;;3.13;1.40;;;;;;;1.32;46.53;99710.84;5094930;28;20100;-80
2022/05/02 01:29:31;;;;;;;4.53;1.27;;;;;;;1.40;46.32;99719.31;5095024;28;20059;-79
2022/05/02 01:31:57;;;;;;;1.30;1.20;;;;;;;1.44;46.32;99723.56;5095262;28;20079;-80
2022/05/02 01:34:23;;;;;;;1.27;1.17;;;;;;;1.49;45.91;99721.59;5076812;28;20513;-80
2022/05/02 01:36:49;;;;;;;2.65;1.50;;;;;;;1.54;45.93;99724.91;5094926;28;20126;-79
2022/05/02 01:39:15;;;;;;;1.50;1.40;;;;;;;1.57;45.88;99735.34;5076810;28;20097;-80
2022/05/02 01:41:41;;;;;;;2.03;1.38;;;;;;;1.72;45.47;99738.34;5076892;28;20721;-79
2022/05/02 01:44:07;;;;;;;2.15;1.20;;;;;;;1.80;45.59;99733.63;5043551;28;20036;-79
2022/05/02 01:46:33;;;;;;;1.63;1.35;;;;;;;1.91;45.05;99739.34;5043513;28;20142;-80
2022/05/02 01:48:59;;;;;;;7.20;1.60;;;;;;;1.94;45.37;99749.78;5094802;28;20124;-80
2022/05/02 01:51:25;;;;;;;2.08;1.33;;;;;;;2.01;45.10;99753.91;5093489;28;20043;-81
2022/05/02 01:53:51;;;;;;;5.38;1.30;;;;;;;2.06;44.85;99756.38;5076370;28;20058;-80
2022/05/02 01:56:17;;;;;;;3.17;1.40;;;;;;;2.12;44.88;99756.16;5076624;28;20135;-79
2022/05/02 01:58:43;;;;;;;1.92;1.20;;;;;;;2.17;44.56;99748.91;5060022;28;20040;-80
2022/05/02 02:01:09;;;;;;;2.90;1.48;;;;;;;2.27;44.55;99760.81;5060227;28;20085;-79
2022/05/02 02:03:35;;;;;;;2.28;1.50;;;;;;;2.24;44.91;99768.84;5076561;28;20043;-79
2022/05/02 02:06:01;;;;;;;1.63;1.50;;;;;;;2.01;44.78;99750.41;5076411;28;20078;-80
2022/05/02 02:08:34;;;;;;;2.55;1.60;;;;;;;2.21;45.09;99773.38;5059574;28;20093;-79
2022/05/02 02:11:05;;;;;;;2.78;1.98;;;;;;;2.15;44.68;99756.88;5060116;28;20050;-80
2022/05/02 02:13:32;;;;;;;5.75;1.33;;;;;;;2.23;44.72;99758.38;5059615;28;20131;-79
2022/05/02 02:15:59;;;;;;;2.15;1.55;;;;;;;2.37;44.60;99774.47;5076471;28;20127;-80
2022/05/02 02:18:25;;;;;;;2.83;1.50;;;;;;;2.51;44.73;99792.41;5094293;28;20052;-79
2022/05/02 02:20:54;;;;;;;11.95;1.65;;;;;;;2.55;44.29;99789.59;5075774;28;20506;-80
2022/05/02 02:23:22;;;;;;;2.88;1.65;;;;;;;2.59;43.92;99788.53;5059105;28;20090;-80
2022/05/02 02:25:48;;;;;;;3.53;1.52;;;;;;;2.70;44.07;99803.09;5076496;28;20195;-81
2022/05/02 02:28:15;;;;;;;1.80;1.60;;;;;;;2.68;43.69;99796.09;5076150;28;20077;-80
2022/05/02 02:30:44;;;;;;;3.42;1.48;;;;;;;2.79;43.46;99797.44;5094502;28;20070;-81
2022/05/02 02:33:10;;;;;;;;;;;;;;;2.91;43.42;99796.94;5059802;28;20059;-79
2022/05/02 02:35:37;;;;;;;2.78;1.38;;;;;;;2.81;43.45;99801.72;5075835;28;19915;-79
2022/05/02 02:38:03;;;;;;;4.03;1.60;;;;;;;2.85;43.43;99794.53;5059742;28;20384;-79
2022/05/02 02:40:31;;;;;;;3.35;1.40;;;;;;;2.86;43.32;99793.66;5075858;28;20481;-80
2022/05/02 02:42:57;;;;;;;3.75;1.88;;;;;;;2.89;43.16;99799.63;5059019;28;20040;-81
2022/05/02 02:45:23;;;;;;;3.80;1.92;;;;;;;2.89;42.99;99793.50;5059135;28;20173;-79
2022/05/02 02:47:49;;;;;;;7.60;1.80;;;;;;;2.86;43.40;99793.66;5075671;28;20052;-79
2022/05/02 02:50:15;;;;;;;3.63;1.90;;;;;;;2.92;43.04;99786.31;5093512;28;20062;-79
2022/05/02 02:52:41;;;;;;;2.00;1.80;;;;;;;2.97;43.34;99801.09;5075818;28;20419;-80
2022/05/02 02:55:07;;;;;;;4.45;1.50;;;;;;;3.02;43.26;99793.84;5076226;28;20043;-80
2022/05/02 02:57:36;;;;;;;10.68;1.90;;;;;;;3.12;43.34;99805.72;5075604;28;20040;-79
2022/05/02 03:00:04;;;;;;;1.30;1.20;;;;;;;3.25;42.86;99808.72;5059083;28;20053;-80
2022/05/02 03:02:30;;;;;;;1.42;1.33;;;;;;;3.32;42.90;99818.13;5058761;28;20055;-80
2022/05/02 03:07:41;;;;;;;2.30;1.60;;;;;;;3.26;42.67;99823.66;5093692;28;20044;-81
2022/05/02 03:10:08;;;;;;;2.25;1.50;;;;;;;3.40;42.64;99814.22;5093582;28;20085;-80
2022/05/02 03:12:34;;;;;;;4.63;1.27;;;;;;;3.62;42.94;99815.94;5059162;28;20051;-79
2022/05/02 03:14:59;;;;;;;6.13;1.50;;;;;;;3.76;42.09;99818.81;5058849;28;20058;-80
2022/05/02 03:17:25;;;;;;;1.77;1.50;;;;;;;3.82;42.19;99813.25;5041854;28;20491;-80
2022/05/02 03:19:51;;;;;;;5.78;1.48;;;;;;;3.92;42.27;99808.41;5058842;28;20146;-80
2022/05/02 03:22:17;;;;;;;2.70;1.40;;;;;;;4.12;42.19;99826.88;5075231;28;20042;-80
2022/05/02 03:24:43;;;;;;;1.77;1.30;;;;;;;4.24;41.54;99814.00;5058608;28;20032;-81
2022/05/02 03:27:09;;;;;;;1.88;1.40;;;;;;;4.24;41.29;99821.94;5058630;28;20051;-80
2022/05/02 03:29:36;;;;;;;2.20;1.40;;;;;;;4.35;41.28;99817.00;5058380;28;20043;-80
2022/05/02 03:32:02;;;;;;;2.13;1.55;;;;;;;4.36;40.59;99809.00;5093287;28;20040;-81
2022/05/02 03:34:28;;;;;;;2.17;1.20;;;;;;;4.47;40.51;99820.84;5058508;28;20074;-78
2022/05/02 03:36:54;;;;;;;3.28;1.40;;;;;;;4.58;40.39;99824.72;5075271;28;20040;-80
2022/05/02 03:39:20;;;;;;;3.33;1.25;;;;;;;4.78;39.73;99825.56;5058479;28;20047;-79
2022/05/02 03:41:46;;;;;;;1.55;1.10;;;;;;;4.78;38.49;99828.22;5074873;28;20040;-79
2022/05/02 03:44:12;;;;;;;1.30;1.20;;;;;;;4.79;38.69;99825.47;5074896;28;20048;-80
2022/05/02 03:46:38;;;;;;;3.22;1.27;;;;;;;4.73;38.96;99822.25;5041819;28;20051;-82
2022/05/02 03:49:04;;;;;;;2.08;1.30;;;;;;;4.90;38.93;99830.25;5058218;28;20048;-78
2022/05/02 03:51:29;;;;;;;4.68;1.38;;;;;;;5.02;38.17;99831.44;5075145;28;20048;-80
2022/05/02 03:53:55;;;;;;;1.27;1.10;;;;;;;4.98;38.07;99822.78;5074844;28;20062;-82
2022/05/02 03:56:21;;;;;;;2.20;1.17;;;;;;;5.01;37.46;99830.59;5041537;28;20039;-80
2022/05/02 03:58:47;;;;;;;1.70;1.30;;;;;;;5.03;37.50;99826.06;5057718;28;20097;-81
2022/05/02 04:01:13;;;;;;;8.05;1.88;;;;;;;5.05;38.13;99833.94;5057989;28;20482;-77
2022/05/02 04:03:39;;;;;;;1.13;1.02;;;;;;;5.20;37.12;99838.47;5041272;28;20044;-79
2022/05/02 04:06:05;;;;;;;2.22;1.10;;;;;;;5.29;36.84;99838.00;5075012;28;20052;-84
2022/05/02 04:08:31;;;;;;;5.25;1.38;;;;;;;5.28;36.60;99840.75;5058449;28;20095;-78
2022/05/02 04:10:57;;;;;;;1.05;0.95;;;;;;;5.32;36.62;99835.22;5057897;28;20064;-78
2022/05/02 04:13:23;;;;;;;1.25;1.15;;;;;;;5.41;37.66;99839.19;5075104;28;20398;-86
2022/05/02 04:15:49;;;;;;;3.15;1.15;;;;;;;6.08;40.98;99835.69;5075573;28;20044;-84
2022/05/02 04:18:15;;;;;;;1.77;1.20;;;;;;;6.45;38.40;99836.34;5078577;28;20040;-85
2022/05/02 04:20:41;;;;;;;13.05;1.35;;;;;;;6.56;35.58;99833.94;5078654;28;20071;-76
2022/05/02 04:23:07;;;;;;;7.78;1.63;;;;;;;6.56;34.36;99843.72;5086043;28;20040;-79
2022/05/02 04:25:33;;;;;;;1.33;1.23;;;;;;;6.40;34.62;99838.41;5078748;28;20040;-82
2022/05/02 04:27:59;;;;;;;1.40;1.30;;;;;;;6.56;35.04;99844.56;5096268;28;20043;-82
2022/05/02 04:30:24;;;;;;;3.15;1.20;;;;;;;6.67;35.13;99840.47;5081321;28;20447;-82
2022/05/02 04:32:50;;;;;;;1.33;1.23;;;;;;;6.82;34.70;99850.22;5098065;28;20039;-83
2022/05/02 04:35:16;;;;;;;0.80;0.80;;;;;;;6.91;34.98;99839.06;5064023;28;20413;-84
2022/05/02 04:37:42;;;;;;;4.43;1.23;;;;;;;7.23;34.42;99860.31;5116430;28;20035;-81
2022/05/02 04:40:08;;;;;;;2.78;1.23;;;;;;;7.26;34.06;99838.84;5097777;28;20035;-79
2022/05/02 04:42:36;;;;;;;4.90;1.10;;;;;;;7.36;34.32;99850.66;5094238;28;20039;-83
2022/05/02 04:45:02;;;;;;;1.88;1.27;;;;;;;7.47;34.00;99853.53;5077549;28;20040;-80
2022/05/02 04:47:29;;;;;;;3.55;1.10;;;;;;;7.23;32.11;99847.00;5095750;28;20078;-80
2022/05/02 04:49:55;;;;;;;1.05;0.93;;;;;;;7.08;32.63;99839.94;5076426;28;20043;-79
2022/05/02 04:52:21;;;;;;;2.58;0.82;;;;;;;7.25;32.97;99850.41;5060361;28;20050;-88
2022/05/02 04:54:46;;;;;;;2.58;1.50;;;;;;;7.38;32.63;99853.25;5060426;28;20043;-77
2022/05/02 04:57:13;;;;;;;3.00;1.10;;;;;;;7.46;31.57;99843.00;5095919;28;20479;-77
2022/05/02 04:59:39;;;;;;;1.23;1.05;;;;;;;7.52;30.67;99838.19;5087703;28;20510;-77
2022/05/02 05:02:05;;;;;;;2.63;1.27;;;;;;;7.50;30.94;99844.53;5063511;28;20043;-79
2022/05/02 05:04:31;;;;;;;3.90;0.90;;;;;;;7.51;30.42;99835.59;5096648;28;20039;-79
2022/05/02 05:06:57;;;;;;;3.40;1.00;;;;;;;7.67;30.58;99838.19;5115250;28;20055;-80
2022/05/02 05:09:23;;;;;;;3.47;1.20;;;;;;;7.80;29.83;99839.16;5096767;28;20144;-77
2022/05/02 05:12:11;;;;;;;2.00;0.90;;;;;;;7.83;30.21;99828.34;5096783;28;20185;-78
2022/05/02 05:18:16;;;;;;;1.10;0.80;;;;;;;8.14;29.12;99839.75;5096704;28;20123;-80
2022/05/02 05:20:48;;;;;;;2.97;1.08;;;;;;;8.10;29.28;99840.91;5080163;28;20062;-80
2022/05/02 05:23:25;;;;;;;0.90;0.80;;;;;;;8.24;29.37;99843.56;5080938;28;20040;-79
2022/05/02 05:26:07;;;;;;;2.83;0.90;;;;;;;8.34;29.44;99844.69;5063987;28;20050;-79
2022/05/02 05:29:00;;;;;;;18.52;1.95;;;;;;;8.26;28.22;99841.66;5096093;28;20051;-76
2022/05/02 05:31:42;;;;;;;2.05;1.35;;;;;;;8.21;27.31;99843.75;5063867;28;20476;-79
2022/05/02 05:34:17;;;;;;;0.93;0.90;;;;;;;8.15;27.43;99849.44;5079288;28;20040;-79
2022/05/02 05:37:04;;;;;;;2.05;0.60;;;;;;;8.03;27.34;99857.25;5079548;28;20143;-78
2022/05/02 05:39:44;;;;;;;4.60;1.25;;;;;;;8.07;27.87;99851.75;5096509;28;20050;-80
2022/05/02 05:42:38;;;;;;;0.93;0.80;;;;;;;8.16;27.58;99848.50;5063131;28;20074;-87
2022/05/02 05:45:10;;;;;;;2.13;1.45;;;;;;;8.14;27.66;99842.44;5079419;28;20031;-83
2022/05/02 05:47:54;;;;;;;6.45;1.10;;;;;;;8.35;27.36;99862.41;5096474;28;20100;-81
2022/05/02 05:50:29;;;;;;;1.65;1.15;;;;;;;8.41;28.55;99864.69;5078763;28;20047;-80
2022/05/02 05:53:14;;;;;;;3.50;1.00;;;;;;;8.39;27.38;99850.63;5079625;28;20047;-79
2022/05/02 05:56:04;;;;;;;0.93;0.88;;;;;;;8.57;27.64;99851.25;5078909;28;20039;-78
2022/05/02 05:58:45;;;;;;;2.65;0.85;;;;;;;8.62;27.13;99858.97;5062237;28;20048;-81
2022/05/02 06:01:15;;;;;;;5.45;1.10;;;;;;;8.61;27.20;99833.25;5079318;28;20460;-80
2022/05/02 06:04:09;;;;;;;3.92;0.80;;;;;;;8.48;27.10;99842.03;5095400;28;20127;-79
2022/05/02 06:06:36;;;;;;;1.05;0.93;;;;;;;8.58;26.82;99830.81;5093290;28;20055;-78
2022/05/02 06:09:03;;;;;;;8.68;1.52;;;;;;;8.72;26.84;99844.09;5078319;28;20161;-84
2022/05/02 06:11:29;;;;;;;4.55;0.77;;;;;;;8.69;26.44;99841.66;5070964;28;20043;-79
2022/05/02 06:13:58;;;;;;;1.27;0.90;;;;;;;8.81;26.90;99840.84;5079066;28;20134;-78
2022/05/02 06:19:28;;;;;;;0.80;0.80;;;;;;;8.46;26.54;99841.31;5078245;28;20104;-77
2022/05/02 06:21:55;;;;;;;0.95;0.90;;;;;;;8.49;27.17;99822.44;5062428;28;20130;-77
2022/05/02 06:24:32;;;;;;;6.68;4.50;;;;;;;8.72;27.14;99828.94;5078760;28;20055;-81
2022/05/02 06:27:02;;;;;;;1.35;0.80;;;;;;;8.94;27.20;99832.91;5078617;28;20066;-79
2022/05/02 06:29:28;;;;;;;4.03;0.88;;;;;;;9.28;27.79;99830.66;5079033;28;20051;-80
2022/05/02 06:31:58;;;;;;;2.45;0.90;;;;;;;9.47;27.19;99821.31;5095541;28;20054;-79
2022/05/02 06:34:29;;;;;;;3.95;1.00;;;;;;;9.78;26.48;99829.91;5061228;28;20039;-79
2022/05/02 06:37:39;;;;;;;3.58;1.10;;;;;;;9.61;25.94;99838.22;5114569;28;20101;-79
2022/05/02 06:40:30;;;;;;;5.97;1.30;;;;;;;9.54;26.39;99836.91;5065133;28;20048;-80
2022/05/02 06:43:35;;;;;;;1.08;0.98;;;;;;;9.87;26.86;99828.41;5099575;28;20111;-81
2022/05/02 06:46:18;;;;;;;14.73;1.30;;;;;;;10.09;26.07;99823.28;5002875;28;20037;-81
2022/05/02 06:48:51;;;;;;;8.25;1.27;;;;;;;10.12;25.86;99827.56;5031431;28;20139;-76
2022/05/02 06:51:30;;;;;;;1.80;1.02;;;;;;;10.38;26.15;99833.75;5049239;28;20043;-77
2022/05/02 06:54:19;;;;;;;0.93;0.88;;;;;;;10.51;25.56;99834.59;5096234;28;20048;-77
2022/05/02 06:57:04;;;;;;;0.80;0.80;;;;;;;10.24;25.27;99826.69;5095802;28;20059;-81
2022/05/02 06:59:46;;;;;;;3.22;1.02;;;;;;;10.36;26.13;99825.00;5098079;28;20055;-80
2022/05/02 07:02:12;;;;;;;1.17;1.08;;;;;;;10.75;25.88;99818.56;5083276;28;20046;-82
2022/05/02 07:04:52;;;;;;;2.03;1.35;;;;;;;11.07;25.27;99818.03;5082682;28;20115;-82
2022/05/02 07:07:55;;;;;;;3.05;1.42;;;;;;;11.06;24.71;99810.97;5064804;28;20486;-81
2022/05/02 07:10:24;;;;;;;1.60;1.20;;;;;;;11.02;24.81;99809.47;5078913;28;20043;-76
2022/05/02 07:13:08;;;;;;;3.42;1.30;;;;;;;10.97;24.55;99807.16;5077893;28;20047;-77
2022/05/02 07:15:45;;;;;;;1.25;1.00;;;;;;;10.90;25.60;99803.22;5062504;28;20180;-83
2022/05/02 07:18:56;;;;;;;1.10;1.00;;;;;;;11.27;25.71;99817.38;5078046;28;20047;-81
2022/05/02 07:21:28;;;;;;;6.85;1.30;;;;;;;11.32;25.22;99811.66;5051134;28;20047;-81
2022/05/02 07:24:12;;;;;;;1.10;1.00;;;;;;;11.03;24.34;99808.53;5083310;28;20087;-80
2022/05/02 07:26:39;;;;;;;2.72;1.10;;;;;;;11.16;25.03;99815.50;5057751;28;20447;-81
2022/05/02 07:29:06;;;;;;;1.08;1.08;;;;;;;11.28;24.99;99803.03;5057866;28;20040;-79
2022/05/02 07:31:33;;;;;;;6.18;1.20;;;;;;;11.52;25.27;99800.31;5057699;28;20044;-79
2022/05/02 07:34:02;;;;;;;4.70;1.30;;;;;;;11.77;24.68;99793.94;5092252;28;20479;-78
2022/05/02 07:36:31;;;;;;;4.00;1.65;;;;;;;12.04;24.10;99809.69;5074003;28;20044;-78
2022/05/02 07:39:01;;;;;;;6.85;1.10;;;;;;;11.78;23.78;99784.91;5092421;28;20517;-81
2022/05/02 07:41:28;;;;;;;2.88;1.00;;;;;;;11.47;23.61;99809.66;5057401;28;20040;-77
2022/05/02 07:44:06;;;;;;;5.40;1.45;;;;;;;11.15;23.62;99796.91;5074588;28;20071;-86
2022/05/02 07:46:47;;;;;;;0.90;0.90;;;;;;;11.32;23.72;99790.25;5058092;28;20461;-81
2022/05/02 07:49:25;;;;;;;1.73;1.00;;;;;;;11.64;24.02;99793.16;5074407;28;20514;-80
2022/05/02 07:51:53;;;;;;;2.13;1.23;;;;;;;11.93;23.45;99787.41;5060324;28;20044;-77
2022/05/02 07:54:20;;;;;;;1.38;1.25;;;;;;;11.82;23.91;99775.66;5078205;28;20305;-78
2022/05/02 07:56:48;;;;;;;5.00;1.35;;;;;;;11.82;23.18;99781.03;5061831;28;20048;-80
2022/05/02 07:59:16;;;;;;;1.98;1.15;;;;;;;11.95;24.29;99780.09;5044700;28;20442;-78
2022/05/02 08:01:42;;;;;;;7.30;1.25;;;;;;;12.21;23.51;99780.69;5095855;28;20417;-80
2022/05/02 08:04:13;;;;;;;2.03;0.95;;;;;;;12.17;23.53;99784.59;5043806;28;20047;-80
2022/05/02 08:07:03;;;;;;;2.28;1.63;;;;;;;11.87;23.68;99781.53;5077623;28;20055;-80
2022/05/02 08:09:44;;;;;;;3.88;1.13;;;;;;;11.86;23.68;99770.94;5044529;28;20410;-79
2022/05/02 08:12:46;;;;;;;7.53;1.27;;;;;;;12.02;23.88;99781.31;5077542;28;20044;-80
2022/05/02 08:15:21;;;;;;;1.15;1.10;;;;;;;12.27;23.92;99770.34;5016604;28;20038;-83
2022/05/02 08:18:17;;;;;;;1.15;0.90;;;;;;;12.46;22.81;99776.91;5052053;28;20423;-82
2022/05/02 08:20:52;;;;;;;2.50;1.17;;;;;;;12.89;23.40;99767.03;5060553;28;20426;-80
2022/05/02 08:30:06;;;;;;;1.70;0.88;;;;;;;13.80;22.14;99754.91;5095461;28;20040;-80
2022/05/02 08:32:51;;;;;;;3.28;1.00;;;;;;;14.19;22.39;99762.28;5040633;28;20117;-80
2022/05/02 08:35:50;;;;;;;7.07;1.17;;;;;;;14.31;21.92;99762.03;5046962;28;20074;-79
2022/05/02 08:38:46;;;;;;;8.95;1.17;;;;;;;14.33;21.77;99760.06;5069942;28;20450;-80
2022/05/02 08:41:31;;;;;;;0.90;0.90;;;;;;;13.75;21.77;99754.41;5069264;28;20052;-80
2022/05/02 08:44:18;;;;;;;1.75;1.05;;;;;;;13.76;22.08;99750.75;5099553;28;20423;-80
2022/05/02 08:47:09;;;;;;;1.75;0.90;;;;;;;13.91;22.33;99755.78;5067590;28;20040;-81
2022/05/02 08:49:38;;;;;;;1.17;1.00;;;;;;;14.23;22.49;99729.59;5078930;28;20044;-80
2022/05/02 08:52:22;;;;;;;3.05;0.88;;;;;;;14.38;21.33;99750.75;5065432;28;20075;-80
2022/05/02 08:55:22;;;;;;;1.00;1.00;;;;;;;13.74;22.79;99763.47;5097793;28;20414;-79
2022/05/02 08:58:09;;;;;;;1.98;0.95;;;;;;;14.07;23.29;99758.84;5077897;28;20842;-77
2022/05/02 09:01:03;;;;;;;2.05;1.20;;;;;;;14.46;21.90;99729.38;5077505;28;20089;-79
2022/05/02 09:03:50;;;;;;;1.42;1.10;;;;;;;14.73;21.26;99748.44;5096966;28;20054;-78
2022/05/02 09:06:34;;;;;;;1.13;0.98;;;;;;;14.85;22.53;99721.38;5081041;28;20410;-78
2022/05/02 09:09:34;;;;;;;1.52;1.00;;;;;;;15.22;22.20;99732.28;5115644;28;20054;-79
2022/05/02 09:12:22;;;;;;;3.38;1.00;;;;;;;14.59;20.37;99738.06;5080909;28;20043;-79
2022/05/02 09:15:11;;;;;;;1.00;1.00;;;;;;;14.65;21.45;99723.22;5097309;28;20043;-79
2022/05/02 09:18:11;;;;;;;1.33;1.05;;;;;;;14.62;20.64;99729.72;5098030;28;20047;-79
2022/05/02 09:21:23;;;;;;;1.55;1.17;;;;;;;14.07;21.57;99727.44;5097188;28;20073;-79
2022/05/02 09:24:36;;;;;;;1.17;1.10;;;;;;;14.53;21.17;99734.09;5076626;28;20040;-81
2022/05/02 09:27:35;;;;;;;1.05;0.98;;;;;;;15.09;20.28;99724.53;5105377;28;20050;-78
2022/05/02 09:30:21;;;;;;;1.20;1.00;;;;;;;15.13;19.73;99725.94;5083621;28;20105;-77
2022/05/02 09:32:53;;;;;;;2.15;0.98;;;;;;;15.54;20.17;99707.72;5105437;28;20042;-78
2022/05/02 09:35:43;;;;;;;1.27;0.98;;;;;;;16.01;19.29;99722.06;5102259;28;20046;-77
2022/05/02 09:38:26;;;;;;;3.35;0.90;;;;;;;16.08;19.92;99716.94;5095476;28;20059;-77
2022/05/02 09:41:22;;;;;;;3.92;1.02;;;;;;;16.11;19.92;99721.19;5104429;28;20185;-78
2022/05/02 09:49:59;;;;;;;4.25;0.90;;;;;;;16.43;19.60;99704.53;5094382;28;20555;-77
2022/05/02 09:52:41;;;;;;;1.98;0.90;;;;;;;17.19;19.10;99690.63;5076183;28;20039;-78
2022/05/02 09:58:32;;;;;;;32.22;2.42;;;;;;;17.76;18.51;99692.91;5064590;28;20043;-78
2022/05/02 10:01:16;;;;;;;4.53;1.35;;;;;;;17.57;18.39;99696.66;5075854;28;20047;-77
2022/05/02 10:04:18;;;;;;;16.35;1.65;;;;;;;17.73;18.10;99691.34;5043337;28;20048;-78
2022/05/02 10:06:50;;;;;;;2.30;1.02;;;;;;;17.38;17.78;99705.81;5018059;28;20051;-77
2022/05/02 10:09:36;;;;;;;1.00;0.85;;;;;;;16.72;17.77;99697.09;5092732;28;20051;-78
2022/05/02 10:12:26;;;;;;;1.95;0.90;;;;;;;16.35;18.09;99697.19;5042590;28;20040;-78
2022/05/02 10:15:13;;;;;;;2.38;1.00;;;;;;;16.25;18.50;99686.47;5086514;28;20494;-79
2022/05/02 10:18:00;;;;;;;1.20;0.70;;;;;;;16.72;18.31;99682.75;5065690;28;20044;-79
2022/05/02 10:20:54;;;;;;;6.35;1.00;;;;;;;17.38;18.14;99684.19;5089338;28;20092;-80
2022/05/02 10:23:57;;;;;;;0.98;0.90;;;;;;;18.51;17.14;99685.78;5068217;28;20047;-79
2022/05/02 10:26:46;;;;;;;0.90;0.90;;;;;;;18.73;16.58;99681.63;5097225;28;20074;-78
2022/05/02 10:29:37;;;;;;;0.90;0.70;;;;;;;18.75;16.64;99673.31;5075486;28;20035;-79
2022/05/02 10:32:21;;;;;;;1.17;0.80;;;;;;;18.80;16.83;99670.94;5073602;28;20089;-80
2022/05/02 10:34:51;;;;;;;1.10;1.00;;;;;;;19.08;16.61;99661.50;5092551;28;20380;-78
2022/05/02 10:37:24;;;;;;;1.70;0.85;;;;;;;19.84;15.74;99670.22;5087139;28;20042;-79
2022/05/02 10:39:58;;;;;;;4.20;1.02;;;;;;;20.11;15.71;99666.19;5086833;28;20039;-78
2022/05/02 10:42:30;;;;;;;1.45;0.73;;;;;;;19.44;16.47;99663.81;5092045;28;20031;-77
2022/05/02 10:45:17;;;;;;;1.08;0.95;;;;;;;19.73;16.53;99657.00;5059562;28;20039;-78
2022/05/02 10:47:50;;;;;;;5.72;1.35;;;;;;;20.21;16.13;99652.44;5086095;28;20047;-76
2022/05/02 10:50:26;;;;;;;1.23;0.70;;;;;;;20.01;15.92;99660.13;5093939;28;20039;-78
2022/05/02 10:53:10;;;;;;;2.58;0.93;;;;;;;19.65;15.87;99664.16;5087266;28;20494;-76
2022/05/02 10:55:54;;;;;;;0.68;0.68;;;;;;;20.13;15.60;99653.31;5101180;28;20166;-77
2022/05/02 10:58:22;;;;;;;1.65;0.90;;;;;;;20.53;15.58;99638.69;5071310;28;20051;-76
2022/05/02 11:01:06;;;;;;;5.20;1.35;;;;;;;20.64;15.46;99655.59;5104502;28;20055;-77
2022/05/02 11:04:12;;;;;;;10.02;1.13;;;;;;;20.79;15.21;99648.34;5072030;28;20047;-78
2022/05/02 11:07:13;;;;;;;2.45;1.10;;;;;;;20.90;15.29;99642.50;5087992;28;20055;-78
2022/05/02 11:09:50;;;;;;;3.45;0.93;;;;;;;21.14;14.85;99643.31;5093404;28;20510;-79
2022/05/02 11:12:21;;;;;;;1.10;0.90;;;;;;;20.85;15.08;99636.78;5086174;28;20074;-78
2022/05/02 11:14:57;;;;;;;1.67;0.80;;;;;;;20.83;15.55;99633.38;5103335;28;20039;-79
2022/05/02 11:17:28;;;;;;;4.43;1.10;;;;;;;21.57;14.84;99642.56;5076986;28;20061;-79
2022/05/02 11:23:21;;;;;;;4.85;1.00;;;;;;;21.97;14.31;99637.72;5074223;28;20062;-78
2022/05/02 11:26:09;;;;;;;7.13;0.95;;;;;;;22.29;14.38;99635.59;5064882;28;20039;-80
2022/05/02 11:28:41;;;;;;;0.70;0.70;;;;;;;21.99;13.02;99645.66;5077155;28;20573;-80
2022/05/02 11:31:23;;;;;;;0.80;0.75;;;;;;;21.25;13.93;99632.88;5089085;28;20032;-78
2022/05/02 11:34:02;;;;;;;4.28;0.80;;;;;;;22.33;14.02;99628.75;5069848;28;20042;-78
2022/05/02 11:36:33;;;;;;;2.58;0.95;;;;;;;23.11;13.88;99634.38;5052676;28;20040;-79
2022/05/02 11:39:05;;;;;;;0.88;0.88;;;;;;;22.69;13.23;99625.16;5085214;28;20072;-78
2022/05/02 11:41:32;;;;;;;1.08;1.02;;;;;;;23.06;13.59;99618.63;5051305;28;20475;-79
2022/05/02 11:44:07;;;;;;;1.98;0.95;;;;;;;23.51;12.82;99630.94;5086851;28;20461;-79
2022/05/02 11:46:39;;;;;;;3.20;1.10;;;;;;;24.04;13.33;99608.56;5078760;28;20067;-78
2022/05/02 11:49:08;;;;;;;3.75;0.95;;;;;;;24.16;12.42;99617.03;5078027;28;20130;-81
2022/05/02 11:51:46;;;;;;;3.10;0.80;;;;;;;24.39;12.45;99598.41;5061214;28;20040;-77
2022/05/02 11:54:27;;;;;;;2.10;0.75;;;;;;;24.52;12.38;99603.06;5077884;28;20472;-81
2022/05/02 11:56:59;;;;;;;1.10;1.00;;;;;;;24.79;12.37;99612.19;5061490;28;20036;-79
2022/05/02 11:59:57;;;;;;;1.58;1.05;;;;;;;24.71;12.03;99609.63;5077954;28;20414;-80
2022/05/02 12:02:52;;;;;;;3.60;0.95;;;;;;;23.94;12.06;99603.47;5045243;28;20044;-78
2022/05/02 12:05:18;;;;;;;1.13;0.70;;;;;;;24.44;12.22;99590.44;5095034;28;20051;-79
2022/05/02 12:07:56;;;;;;;1.75;1.13;;;;;;;24.96;12.39;99591.56;5077846;28;20122;-78
2022/05/02 12:10:34;;;;;;;3.63;1.30;;;;;;;24.71;12.11;99598.69;5078344;28;20055;-80
2022/05/02 12:13:01;;;;;;;1.42;1.10;;;;;;;25.06;11.87;99596.63;5078286;28;20043;-82
2022/05/02 12:15:27;;;;;;;3.78;1.52;;;;;;;25.01;11.73;99595.56;5077593;28;20097;-80
2022/05/02 12:18:06;;;;;;;1.63;0.80;;;;;;;24.49;13.04;99599.94;5077965;28;20042;-82
2022/05/02 12:20:35;;;;;;;3.03;1.13;;;;;;;24.80;12.13;99585.69;5094548;28;20490;-79
2022/05/02 12:23:12;;;;;;;1.75;1.02;;;;;;;25.18;12.18;99580.44;5077457;28;20046;-81
2022/05/02 12:25:49;;;;;;;2.65;1.38;;;;;;;25.66;11.96;99596.56;5061419;28;20054;-79
2022/05/02 12:28:18;;;;;;;0.90;0.90;;;;;;;24.21;12.21;99581.72;5060754;28;20537;-78
2022/05/02 12:30:50;;;;;;;;;;;;;;;23.62;13.25;99594.06;5094565;28;20047;-79
2022/05/02 12:33:19;;;;;;;2.67;0.90;;;;;;;24.21;12.86;99576.25;5060915;28;19927;-79
2022/05/02 12:35:45;;;;;;;2.05;1.40;;;;;;;24.71;12.73;99585.88;5094524;28;20048;-80
2022/05/02 12:38:15;;;;;;;1.15;0.90;;;;;;;24.15;12.26;99572.47;5079313;28;20226;-80
2022/05/02 12:40:42;;;;;;;3.75;1.52;;;;;;;24.69;12.53;99584.41;5064363;28;20130;-79